»·PEaware :: N18357 KBUR-KLAS

N18357 :: KBUR-KLAS

FLIGHT INFORMATION

Flight Status: Arrived
Operator: Privately registered:
United States
More flights under this callsign
Pilot: Randy W. (29098)
Aircraft: BEECH AIRCRAFT BARON
(BE58)
More flights by this aircraft type
Origin: KBUR Bob Hope-Burbank
United States
Destination: KLAS McCarran Intl
United States
More flights between these airports :: More routes between these airports
Route: VNY3 DAG CRESO4
File this flight plan on PilotEdge
Remarks:
Altitude:
(Current/Filed)
11,000ft
Speed:
(Current/Filed)
180kts
Departed: 12-Jan-21 03:26 PM
Arrived: 12-Jan-21 04:29 PM
Distance/Time
Traveled:
193nm/1:03
Distance/Time
To Go:
Arrived

Flight Plot

Page will automatically refresh every two minutes.

Flight plan parsing failed; only flown route is shown


Map Options




Map Legend


Flown Route
Filed Route
Departure Airport
Arrival Airport
Navaid (VOR, NDB)
Fix

Horizontal Profiles

Position Reports

Time Latitude Longitude Heading Altitude Ground
Speed
12-Jan-21 15:01 34.199621 -118.360098 167 722ft 0kts
12-Jan-21 15:02 34.199621 -118.360098 167 722ft 0kts
12-Jan-21 15:03 34.199621 -118.360098 167 722ft 0kts
12-Jan-21 15:04 34.199621 -118.360098 167 722ft 0kts
12-Jan-21 15:05 34.199621 -118.360098 167 722ft 0kts
12-Jan-21 15:06 34.199621 -118.360098 167 722ft 0kts
12-Jan-21 15:07 34.199621 -118.360098 167 722ft 0kts
12-Jan-21 15:08 34.199621 -118.360098 167 722ft 0kts
12-Jan-21 15:09 34.199621 -118.360098 167 722ft 0kts
12-Jan-21 15:10 34.199621 -118.360098 167 722ft 0kts
12-Jan-21 15:11 34.199621 -118.360098 167 722ft 0kts
12-Jan-21 15:12 34.199621 -118.360098 167 722ft 0kts
12-Jan-21 15:13 34.199621 -118.360098 167 722ft 0kts
12-Jan-21 15:14 34.199621 -118.360098 167 722ft 0kts
12-Jan-21 15:15 34.199621 -118.360098 167 722ft 0kts
12-Jan-21 15:16 34.199621 -118.360098 167 722ft 0kts
12-Jan-21 15:17 34.199621 -118.360098 167 722ft 0kts
12-Jan-21 15:18 34.199621 -118.360098 167 722ft 0kts
12-Jan-21 15:19 34.199621 -118.360098 167 722ft 0kts
12-Jan-21 15:20 34.198952 -118.362313 272 723ft 16kts
12-Jan-21 15:21 34.199119 -118.367210 270 728ft 13kts
12-Jan-21 15:22 34.198929 -118.369003 208 728ft 0kts
12-Jan-21 15:23 34.198839 -118.369043 186 728ft 0kts
12-Jan-21 15:24 34.198046 -118.368791 123 726ft 16kts
12-Jan-21 15:25 34.193202 -118.340147 142 1271ft 122kts
12-Jan-21 15:26 34.162961 -118.360687 224 2336ft 151kts
12-Jan-21 15:27 34.134057 -118.398679 224 3493ft 153kts
12-Jan-21 15:28 34.147053 -118.434834 341 4696ft 155kts
12-Jan-21 15:30 34.185620 -118.450031 341 5955ft 137kts
12-Jan-21 15:31 34.218553 -118.462494 0 7177ft 107kts
12-Jan-21 15:32 34.245507 -118.441420 44 7708ft 130kts
12-Jan-21 15:33 34.274335 -118.412334 41 8428ft 140kts
12-Jan-21 15:34 34.305203 -118.381950 40 9158ft 144kts
12-Jan-21 15:35 34.335753 -118.351866 39 9947ft 138kts
12-Jan-21 15:36 34.366060 -118.321976 38 10612ft 144kts
12-Jan-21 15:37 34.400733 -118.288098 37 10777ft 181kts
12-Jan-21 15:38 34.443066 -118.246895 37 10754ft 205kts
12-Jan-21 15:39 34.488660 -118.202407 37 10738ft 214kts
12-Jan-21 15:40 34.535410 -118.156774 36 10728ft 217kts
12-Jan-21 15:41 34.582344 -118.110970 36 10724ft 217kts
12-Jan-21 15:42 34.629329 -118.064454 48 10712ft 218kts
12-Jan-21 15:43 34.639673 -117.993094 83 10719ft 217kts
12-Jan-21 15:44 34.647607 -117.920226 83 10711ft 218kts
12-Jan-21 15:45 34.655583 -117.847279 84 10698ft 218kts
12-Jan-21 15:46 34.663516 -117.774125 84 10704ft 218kts
12-Jan-21 15:47 34.679894 -117.703309 73 10713ft 219kts
12-Jan-21 15:47 34.695062 -117.644368 73 10723ft 219kts
12-Jan-21 15:49 34.716455 -117.560867 73 10660ft 221kts
12-Jan-21 15:49 34.731720 -117.501063 73 10658ft 221kts
12-Jan-21 15:51 34.752934 -117.417795 73 10658ft 221kts
12-Jan-21 15:51 34.768055 -117.358256 73 10660ft 221kts
12-Jan-21 15:52 34.796312 -117.246575 73 10642ft 221kts
12-Jan-21 15:53 34.832307 -117.103508 73 10598ft 221kts
12-Jan-21 15:54 34.868391 -116.960398 74 10573ft 220kts
12-Jan-21 15:55 34.904241 -116.817464 75 10567ft 220kts
12-Jan-21 15:56 34.934490 -116.674274 98 10541ft 214kts
12-Jan-21 15:57 34.959630 -116.588763 69 10574ft 219kts
12-Jan-21 15:58 34.987782 -116.522075 62 10580ft 223kts
12-Jan-21 15:59 35.017587 -116.455057 62 10592ft 226kts
12-Jan-21 16:00 35.047573 -116.387484 62 10607ft 228kts
12-Jan-21 16:01 35.077862 -116.319021 62 10607ft 230kts
12-Jan-21 16:02 35.114531 -116.236019 62 10608ft 231kts
12-Jan-21 16:03 35.175494 -116.097627 62 10609ft 232kts
12-Jan-21 16:04 35.236683 -115.958192 62 10610ft 233kts
12-Jan-21 16:05 35.297407 -115.819181 62 10588ft 233kts
12-Jan-21 16:06 35.334498 -115.754591 46 10577ft 233kts
12-Jan-21 16:07 35.378456 -115.696298 46 10566ft 233kts
12-Jan-21 16:08 35.422282 -115.637754 46 10483ft 237kts
12-Jan-21 16:09 35.468353 -115.576224 46 10010ft 250kts
12-Jan-21 16:10 35.515746 -115.512770 46 9574ft 252kts
12-Jan-21 16:11 35.561887 -115.450864 46 9558ft 241kts
12-Jan-21 16:12 35.606586 -115.390789 46 9559ft 236kts
12-Jan-21 16:13 35.650801 -115.331292 46 9560ft 235kts
12-Jan-21 16:14 35.694920 -115.271828 46 9560ft 235kts
12-Jan-21 16:15 35.738825 -115.212541 46 9561ft 235kts
12-Jan-21 16:16 35.782937 -115.152882 47 9554ft 235kts
12-Jan-21 16:17 35.828373 -115.095522 17 9448ft 235kts
12-Jan-21 16:18 35.891485 -115.086253 1 8777ft 225kts
12-Jan-21 16:19 35.952451 -115.078002 1 8078ft 218kts
12-Jan-21 16:20 36.011186 -115.070005 1 7367ft 201kts
12-Jan-21 16:21 36.064528 -115.062805 0 6655ft 187kts
12-Jan-21 16:22 36.112226 -115.059039 354 5942ft 166kts
12-Jan-21 16:23 36.156951 -115.068663 331 4686ft 160kts
12-Jan-21 16:24 36.177945 -115.103535 227 3546ft 124kts
12-Jan-21 16:25 36.151139 -115.127266 206 3255ft 120kts
12-Jan-21 16:26 36.121770 -115.144004 202 2739ft 109kts
12-Jan-21 16:27 36.096379 -115.158283 206 2099ft 80kts
12-Jan-21 16:28 36.089302 -115.162534 244 2124ft 13kts
12-Jan-21 16:29 36.086162 -115.166602 206 2145ft 28kts
12-Jan-21 16:30 36.080991 -115.170806 301 2167ft 0kts

Navigation Log

Ident Type
Flight plan parsing failed, navigation log unavailable